Time;durP1;ratioP1;P1;durP2;ratioP2;P2;SDS_P1;SDS_P2;PMS_P1;PMS_P2;Temp;Humidity;BMP_temperature;BMP_pressure;BME280_temperature;BME280_humidity;BME280_pressure;Samples;Min_cycle;Max_cycle;Signal;HPM_P1;HPM_P2
2022/11/15 00:02:17;;;;;;;;;;;;;;;5.69;73.70;100658.47;5070687;28;20396;-29
2022/11/15 00:04:42;;;;;;;;;;;;;;;5.67;74.04;100652.31;5071244;28;20373;-29
2022/11/15 00:07:07;;;;;;;;;;;;;;;5.65;74.09;100648.81;5068583;28;19916;-29
2022/11/15 00:09:32;;;;;;;;;;;;;;;5.64;74.25;100647.06;5057126;28;20361;-29
2022/11/15 00:11:58;;;;;;;;;;;;;;;5.63;74.47;100650.53;5047543;28;20454;-29
2022/11/15 00:14:23;;;;;;;;;;;;;;;5.61;74.15;100652.28;5066408;28;20274;-29
2022/11/15 00:16:48;;;;;;;;;;;;;;;5.58;73.96;100642.66;5051084;28;20432;-29
2022/11/15 00:19:13;;;;;;;;;;;;;;;5.58;74.30;100654.84;5043177;28;20515;-29
2022/11/15 00:21:38;;;;;;;;;;;;;;;5.56;73.90;100643.47;5061480;28;19919;-29
2022/11/15 00:24:04;;;;;;;;;;;;;;;5.54;73.85;100648.72;5067170;28;20323;-29
2022/11/15 00:26:29;;;;;;;;;;;;;;;5.53;73.97;100644.31;5062786;28;20320;-29
2022/11/15 00:28:54;;;;;;;;;;;;;;;5.52;73.74;100646.06;5046743;28;19958;-29
2022/11/15 00:31:20;;;;;;;;;;;;;;;5.50;74.22;100645.16;5070444;28;19974;-29
2022/11/15 00:33:45;;;;;;;;;;;;;;;5.48;73.74;100640.78;5067835;28;19913;-29
2022/11/15 00:36:10;;;;;;;;;;;;;;;5.47;74.55;100639.03;5067989;28;19920;-29
2022/11/15 00:38:36;;;;;;;;;;;;;;;5.44;73.94;100639.84;5067289;28;19916;-29
2022/11/15 00:41:02;;;;;;;;;;;;;;;5.42;74.28;100633.75;5065468;28;19920;-29
2022/11/15 00:43:28;;;;;;;;;;;;;;;5.39;74.42;100636.31;5042045;28;19920;-29
2022/11/15 00:45:53;;;;;;;;;;;;;;;5.38;74.41;100637.19;5069083;28;19919;-29
2022/11/15 00:48:18;;;;;;;;;;;;;;;5.35;74.45;100630.19;5072761;28;19959;-29
2022/11/15 00:50:43;;;;;;;;;;;;;;;5.37;74.54;100630.22;5073602;28;19924;-29
2022/11/15 00:53:09;;;;;;;;;;;;;;;5.35;74.55;100629.31;5055822;28;19999;-29
2022/11/15 00:55:34;;;;;;;;;;;;;;;5.35;74.08;100634.53;5072238;28;19938;-29
2022/11/15 00:57:59;;;;;;;;;;;;;;;5.33;74.17;100631.91;5072221;28;19916;-29
2022/11/15 01:00:24;;;;;;;;;;;;;;;5.32;74.62;100634.50;5048827;28;19917;-29
2022/11/15 01:02:49;;;;;;;;;;;;;;;5.32;74.41;100631.88;5068758;28;20435;-29
2022/11/15 01:05:15;;;;;;;;;;;;;;;5.30;74.50;100633.59;5052417;28;19920;-29
2022/11/15 01:07:40;;;;;;;;;;;;;;;5.28;74.79;100628.34;5072937;28;19942;-29
2022/11/15 01:10:05;;;;;;;;;;;;;;;5.28;74.15;100627.47;5072427;28;19923;-29
2022/11/15 01:12:31;;;;;;;;;;;;;;;5.29;74.46;100629.22;5074797;28;19916;-29
2022/11/15 01:14:56;;;;;;;;;;;;;;;5.30;75.00;100625.75;5053022;28;20365;-29
2022/11/15 01:17:21;;;;;;;;;;;;;;;5.29;74.53;100623.97;5074108;28;19924;-29
2022/11/15 01:19:46;;;;;;;;;;;;;;;5.29;75.09;100629.22;5074326;28;19916;-29
2022/11/15 01:22:11;;;;;;;;;;;;;;;5.29;74.90;100618.75;5055470;28;19943;-29
2022/11/15 01:24:37;;;;;;;;;;;;;;;5.29;74.86;100623.97;5074240;28;19916;-29
2022/11/15 01:27:02;;;;;;;;;;;;;;;5.28;74.60;100611.78;5072163;28;19935;-29
2022/11/15 01:29:27;;;;;;;;;;;;;;;5.28;75.23;100611.78;5053770;28;20336;-29
2022/11/15 01:31:53;;;;;;;;;;;;;;;5.28;74.72;100622.22;5064324;28;20402;-29
2022/11/15 01:34:18;;;;;;;;;;;;;;;5.28;75.03;100622.22;5069418;28;19947;-29
2022/11/15 01:36:43;;;;;;;;;;;;;;;5.26;74.55;100614.38;5072900;28;20020;-29
2022/11/15 01:39:09;;;;;;;;;;;;;;;5.24;74.53;100606.50;5065609;28;20007;-29
2022/11/15 01:41:34;;;;;;;;;;;;;;;5.24;74.65;100609.13;5049984;28;19969;-29
2022/11/15 01:44:18;;;;;;;;;;;;;;;5.21;74.86;100611.72;5054713;28;19924;-29
2022/11/15 01:46:44;;;;;;;;;;;;;;;5.20;74.99;100602.09;5073382;28;19960;-29
2022/11/15 01:49:19;;;;;;;;;;;;;;;5.17;74.96;100598.59;5072254;28;20417;-29
2022/11/15 01:51:44;;;;;;;;;;;;;;;5.16;75.29;100602.94;5048274;28;20051;-29
2022/11/15 01:54:10;;;;;;;;;;;;;;;5.13;75.34;100597.66;5071616;28;20015;-29
2022/11/15 01:56:36;;;;;;;;;;;;;;;5.08;74.94;100596.72;5052594;28;19998;-29
2022/11/15 01:59:02;;;;;;;;;;;;;;;5.07;75.41;100590.63;5071110;28;19923;-29
2022/11/15 02:01:28;;;;;;;;;;;;;;;5.06;74.86;100591.47;5064018;28;19924;-29
2022/11/15 02:04:00;;;;;;;;;;;;;;;5.06;75.73;100585.34;5070810;28;19925;-29
2022/11/15 02:06:25;;;;;;;;;;;;;;;5.05;75.12;100583.63;5054294;28;20010;-29
2022/11/15 02:08:51;;;;;;;;;;;;;;;5.05;75.35;100579.28;5072879;28;20077;-29
2022/11/15 02:11:16;;;;;;;;;;;;;;;5.03;75.12;100573.13;5038603;28;20003;-29
2022/11/15 02:13:41;;;;;;;;;;;;;;;5.03;75.11;100575.75;5063755;28;20399;-29
2022/11/15 02:16:25;;;;;;;;;;;;;;;5.01;75.48;100578.34;5070481;28;19928;-29
2022/11/15 02:19:01;;;;;;;;;;;;;;;5.03;74.98;100582.72;5070419;28;19916;-29
2022/11/15 02:21:26;;;;;;;;;;;;;;;4.98;75.98;100575.72;5053156;28;19916;-29
2022/11/15 02:23:54;;;;;;;;;;;;;;;5.00;75.29;100576.59;5067421;28;19920;-29
2022/11/15 02:26:25;;;;;;;;;;;;;;;4.96;75.15;100580.03;5073206;28;20292;-29
2022/11/15 02:29:08;;;;;;;;;;;;;;;4.99;74.85;100577.47;5071833;28;19917;-29
2022/11/15 02:31:52;;;;;;;;;;;;;;;4.98;75.14;100573.09;5045583;28;19916;-29
2022/11/15 02:34:20;;;;;;;;;;;;;;;4.99;75.41;100564.41;5063929;28;20375;-29
2022/11/15 02:36:54;;;;;;;;;;;;;;;4.98;75.53;100560.03;5064522;28;19916;-29
2022/11/15 02:39:28;;;;;;;;;;;;;;;4.99;75.07;100555.66;5063798;28;19970;-29
2022/11/15 02:41:54;;;;;;;;;;;;;;;4.97;74.90;100558.25;5050689;28;19951;-29
2022/11/15 02:44:19;;;;;;;;;;;;;;;4.97;75.02;100555.63;5053653;28;19923;-29
2022/11/15 02:49:31;;;;;;;;;;;;;;;4.92;75.09;100541.66;5062262;28;19923;-29
2022/11/15 02:51:56;;;;;;;;;;;;;;;4.88;74.81;100545.09;5049084;28;20351;-29
2022/11/15 02:54:23;;;;;;;;;;;;;;;4.87;74.84;100543.34;5070209;28;20023;-29
2022/11/15 02:56:48;;;;;;;;;;;;;;;4.85;75.07;100547.66;5071506;28;19963;-29
2022/11/15 02:59:17;;;;;;;;;;;;;;;4.84;75.27;100538.06;5044806;28;19959;-29
2022/11/15 03:01:45;;;;;;;;;;;;;;;4.84;75.30;100535.47;5044494;28;19923;-29
2022/11/15 03:04:27;;;;;;;;;;;;;;;4.84;75.30;100535.47;5047705;28;19923;-28
2022/11/15 03:07:04;;;;;;;;;;;;;;;4.82;75.08;100534.53;5048001;28;19939;-29
2022/11/15 03:09:32;;;;;;;;;;;;;;;4.79;75.41;100535.41;5072495;28;19955;-29
2022/11/15 03:12:05;;;;;;;;;;;;;;;4.80;75.76;100541.50;5071063;28;20388;-29
2022/11/15 03:14:31;;;;;;;;;;;;;;;4.78;75.65;100543.22;5070452;28;19927;-29
2022/11/15 03:17:00;;;;;;;;;;;;;;;4.76;75.51;100535.34;5051468;28;20003;-29
2022/11/15 03:19:43;;;;;;;;;;;;;;;4.77;75.42;100539.72;5067383;28;19923;-29
2022/11/15 03:22:09;;;;;;;;;;;;;;;4.76;75.49;100537.97;5066454;28;19916;-29
2022/11/15 03:24:34;;;;;;;;;;;;;;;4.76;75.56;100535.34;5063791;28;19916;-29
2022/11/15 03:26:59;;;;;;;;;;;;;;;4.74;75.51;100532.72;5045281;28;19938;-29
2022/11/15 03:29:29;;;;;;;;;;;;;;;4.74;75.37;100532.72;5063856;28;19921;-29
2022/11/15 03:31:56;;;;;;;;;;;;;;;4.74;75.58;100532.72;5063034;28;20309;-29
2022/11/15 03:34:26;;;;;;;;;;;;;;;4.73;75.58;100546.66;5071117;28;19927;-29
2022/11/15 03:36:52;;;;;;;;;;;;;;;4.73;75.44;100540.53;5052280;28;20421;-29
2022/11/15 03:39:17;;;;;;;;;;;;;;;4.71;75.02;100537.88;5067115;28;19959;-28
2022/11/15 03:42:07;;;;;;;;;;;;;;;4.71;75.24;100540.50;5062142;28;20007;-29
2022/11/15 03:44:48;;;;;;;;;;;;;;;4.70;75.08;100538.75;5048628;28;20366;-29
2022/11/15 03:47:17;;;;;;;;;;;;;;;4.69;75.16;100537.00;5066148;28;19923;-29
2022/11/15 03:49:44;;;;;;;;;;;;;;;4.69;75.06;100539.63;5057826;28;20382;-29
2022/11/15 03:52:09;;;;;;;;;;;;;;;4.67;75.29;100536.09;5049645;28;19923;-29
2022/11/15 03:54:34;;;;;;;;;;;;;;;4.67;75.64;100530.88;5052126;28;19928;-29
2022/11/15 03:57:00;;;;;;;;;;;;;;;4.65;75.97;100522.16;5064348;28;19916;-29
2022/11/15 03:59:25;;;;;;;;;;;;;;;4.65;75.57;100526.50;5068870;28;19920;-29
2022/11/15 04:01:50;;;;;;;;;;;;;;;4.65;75.78;100523.88;5063109;28;19916;-29
2022/11/15 04:04:15;;;;;;;;;;;;;;;4.64;75.79;100525.63;5052141;28;19939;-29
2022/11/15 04:06:41;;;;;;;;;;;;;;;4.64;74.96;100525.63;5070141;28;19920;-29
2022/11/15 04:09:06;;;;;;;;;;;;;;;4.64;74.89;100525.63;5053220;28;19944;-29
2022/11/15 04:11:31;;;;;;;;;;;;;;;4.63;75.58;100526.47;5066611;28;19993;-29
2022/11/15 04:13:56;;;;;;;;;;;;;;;4.62;75.74;100529.94;5067146;28;19922;-29
2022/11/15 04:16:22;;;;;;;;;;;;;;;4.62;75.63;100529.94;5067218;28;19920;-29
2022/11/15 04:24:11;;;;;;;;;;;;;;;4.60;75.37;100534.25;5068073;28;20266;-29
2022/11/15 04:24:19;;;;;;;;;;;;;;;4.61;75.85;100542.13;5070964;28;19923;-29
2022/11/15 04:26:44;;;;;;;;;;;;;;;4.61;75.40;100536.03;5065508;28;20363;-29
2022/11/15 04:31:53;;;;;;;;;;;;;;;4.59;75.96;100540.34;5074107;28;20301;-29
2022/11/15 04:34:19;;;;;;;;;;;;;;;4.58;75.33;100536.00;5064979;28;19920;-29
2022/11/15 04:39:28;;;;;;;;;;;;;;;4.55;76.11;100530.72;5072191;28;20304;-29
2022/11/15 04:41:53;;;;;;;;;;;;;;;4.54;75.93;100532.47;5054545;28;19917;-29
2022/11/15 04:44:18;;;;;;;;;;;;;;;4.55;75.59;100525.50;5064234;28;20016;-29
2022/11/15 04:46:44;;;;;;;;;;;;;;;4.55;76.03;100517.66;5071193;28;20048;-29
2022/11/15 04:49:09;;;;;;;;;;;;;;;4.55;75.81;100507.22;5074712;28;19912;-29
2022/11/15 04:51:34;;;;;;;;;;;;;;;4.55;75.76;100517.66;5056606;28;19912;-29
2022/11/15 04:53:59;;;;;;;;;;;;;;;4.55;75.82;100523.78;5074454;28;19927;-29
2022/11/15 04:56:24;;;;;;;;;;;;;;;4.56;75.86;100522.03;5074500;28;20269;-29
2022/11/15 04:58:50;;;;;;;;;;;;;;;4.54;75.73;100521.13;5068280;28;19963;-29
2022/11/15 05:01:15;;;;;;;;;;;;;;;4.53;75.45;100525.47;5071057;28;20353;-29
2022/11/15 05:06:24;;;;;;;;;;;;;;;4.52;75.66;100525.44;5071910;28;19983;-29
2022/11/15 05:08:49;;;;;;;;;;;;;;;4.50;75.72;100522.81;5073572;28;20361;-29
2022/11/15 05:11:14;;;;;;;;;;;;;;;4.49;75.95;100521.06;5072010;28;20401;-29
2022/11/15 05:13:40;;;;;;;;;;;;;;;4.48;75.42;100515.00;5072809;28;19916;-29
2022/11/15 05:16:05;;;;;;;;;;;;;;;4.48;75.48;100520.22;5074641;28;19916;-29
2022/11/15 05:18:30;;;;;;;;;;;;;;;4.45;76.03;100517.56;5074052;28;19970;-29
2022/11/15 05:20:55;;;;;;;;;;;;;;;4.46;75.60;100516.69;5056519;28;19919;-29
2022/11/15 05:23:21;;;;;;;;;;;;;;;4.44;75.66;100512.31;5073826;28;19920;-29
2022/11/15 05:25:46;;;;;;;;;;;;;;;4.44;75.15;100512.31;5070274;28;19916;-29
2022/11/15 05:28:11;;;;;;;;;;;;;;;4.42;75.00;100507.06;5069302;28;19924;-29
2022/11/15 05:30:36;;;;;;;;;;;;;;;4.42;75.40;100509.66;5071083;28;19942;-29
2022/11/15 05:33:01;;;;;;;;;;;;;;;4.40;75.21;100511.38;5069359;28;19916;-29
2022/11/15 05:35:31;;;;;;;;;;;;;;;4.40;75.32;100506.16;5072932;28;19964;-28
2022/11/15 05:37:57;;;;;;;;;;;;;;;4.38;74.79;100501.75;5056060;28;20014;-29
2022/11/15 05:40:22;;;;;;;;;;;;;;;4.38;74.91;100501.75;5069596;28;20016;-29
2022/11/15 05:42:47;;;;;;;;;;;;;;;4.35;75.39;100500.88;5077609;28;19959;-29
2022/11/15 05:45:12;;;;;;;;;;;;;;;4.36;75.37;100505.25;5055191;28;19916;-29
2022/11/15 05:47:37;;;;;;;;;;;;;;;4.35;74.81;100503.50;5071837;28;19920;-29
2022/11/15 05:50:03;;;;;;;;;;;;;;;4.35;75.45;100505.22;5073690;28;19913;-29
2022/11/15 05:52:29;;;;;;;;;;;;;;;4.34;75.30;100500.84;5055681;28;19919;-29
2022/11/15 05:54:54;;;;;;;;;;;;;;;4.32;75.44;100499.94;5069860;28;19962;-29
2022/11/15 05:57:19;;;;;;;;;;;;;;;4.31;75.21;100495.59;5072968;28;19920;-29
2022/11/15 05:59:44;;;;;;;;;;;;;;;4.28;75.52;100499.03;5055482;28;19923;-29
2022/11/15 06:02:10;;;;;;;;;;;;;;;4.28;75.37;100490.31;5072016;28;20179;-29
2022/11/15 06:04:35;;;;;;;;;;;;;;;4.27;75.07;100486.81;5070942;28;19970;-29
2022/11/15 06:07:01;;;;;;;;;;;;;;;4.27;75.23;100488.56;5070566;28;19917;-29
2022/11/15 06:09:26;;;;;;;;;;;;;;;4.25;75.15;100496.38;5053926;28;20396;-29
2022/11/15 06:11:51;;;;;;;;;;;;;;;4.24;75.11;100492.88;5073281;28;20444;-29
2022/11/15 06:14:16;;;;;;;;;;;;;;;4.23;75.30;100488.53;5067637;28;20403;-29
2022/11/15 06:16:41;;;;;;;;;;;;;;;4.22;75.46;100499.84;5069546;28;19999;-29
2022/11/15 06:19:07;;;;;;;;;;;;;;;4.21;75.42;100500.66;5071652;28;19999;-30
2022/11/15 06:21:32;;;;;;;;;;;;;;;4.19;75.36;100502.38;5068340;28;20015;-29
2022/11/15 06:23:58;;;;;;;;;;;;;;;4.18;75.04;100508.47;5066960;28;19924;-30
2022/11/15 06:26:23;;;;;;;;;;;;;;;4.19;75.42;100501.50;5072599;28;20292;-30
2022/11/15 06:28:48;;;;;;;;;;;;;;;4.15;75.33;100503.19;5073203;28;20409;-30
2022/11/15 06:31:13;;;;;;;;;;;;;;;4.15;75.52;100508.44;5073151;28;20369;-30
2022/11/15 06:33:39;;;;;;;;;;;;;;;4.14;75.05;100511.91;5050721;28;19917;-30
2022/11/15 06:36:05;;;;;;;;;;;;;;;4.13;75.28;100515.34;5068401;28;19916;-29
2022/11/15 06:38:30;;;;;;;;;;;;;;;4.11;74.83;100509.22;5072472;28;19964;-30
2022/11/15 06:41:00;;;;;;;;;;;;;;;4.10;74.65;100513.56;5072788;28;19948;-29
2022/11/15 06:43:26;;;;;;;;;;;;;;;4.08;75.12;100514.41;5072652;28;19912;-30
2022/11/15 06:45:51;;;;;;;;;;;;;;;4.07;74.89;100515.28;5072726;28;19912;-30
2022/11/15 06:48:16;;;;;;;;;;;;;;;4.05;75.08;100514.34;5062718;28;19970;-29
2022/11/15 06:50:41;;;;;;;;;;;;;;;4.04;75.09;100513.47;5072452;28;19913;-30
2022/11/15 06:53:07;;;;;;;;;;;;;;;4.05;74.66;100522.19;5054672;28;19999;-29
2022/11/15 06:55:32;;;;;;;;;;;;;;;4.03;74.73;100532.59;5072474;28;19923;-30
2022/11/15 06:57:57;;;;;;;;;;;;;;;4.02;74.56;100524.75;5072567;28;20054;-30
2022/11/15 07:00:23;;;;;;;;;;;;;;;4.00;75.41;100531.69;5072619;28;20301;-29
2022/11/15 07:02:48;;;;;;;;;;;;;;;3.98;74.88;100532.50;5062418;28;19966;-29
2022/11/15 07:05:14;;;;;;;;;;;;;;;3.96;75.32;100526.41;5072521;28;19985;-30
2022/11/15 07:07:39;;;;;;;;;;;;;;;3.97;75.17;100538.59;5072368;28;20107;-29
2022/11/15 07:10:04;;;;;;;;;;;;;;;3.95;75.08;100539.44;5072816;28;19912;-30
2022/11/15 07:12:30;;;;;;;;;;;;;;;3.95;75.02;100540.31;5072215;28;19916;-30
2022/11/15 07:14:55;;;;;;;;;;;;;;;3.96;75.31;100531.63;5052956;28;19920;-30
2022/11/15 07:17:20;;;;;;;;;;;;;;;3.96;75.79;100542.06;5061657;28;20298;-30
2022/11/15 07:19:45;;;;;;;;;;;;;;;3.93;75.31;100530.69;5064507;28;19923;-30
2022/11/15 07:22:10;;;;;;;;;;;;;;;3.93;75.59;100526.34;5054059;28;19912;-30
2022/11/15 07:24:36;;;;;;;;;;;;;;;3.94;75.53;100538.53;5054108;28;20015;-30
2022/11/15 07:27:01;;;;;;;;;;;;;;;3.95;75.58;100535.09;5072472;28;19917;-30
2022/11/15 07:29:26;;;;;;;;;;;;;;;3.95;75.85;100534.22;5062485;28;20271;-30
2022/11/15 07:31:51;;;;;;;;;;;;;;;3.95;76.02;100540.31;5072072;28;19921;-30
2022/11/15 07:34:17;;;;;;;;;;;;;;;3.96;76.13;100533.34;5071626;28;19971;-30
2022/11/15 07:36:42;;;;;;;;;;;;;;;3.98;76.06;100540.34;5071829;28;19916;-30
2022/11/15 07:39:07;;;;;;;;;;;;;;;3.99;76.23;100541.22;5072193;28;20425;-29
2022/11/15 07:41:32;;;;;;;;;;;;;;;4.00;75.82;100542.13;5072016;28;20010;-30
2022/11/15 07:43:58;;;;;;;;;;;;;;;4.01;76.13;100551.69;5062256;28;19927;-30
2022/11/15 07:46:23;;;;;;;;;;;;;;;4.02;76.00;100550.84;5072020;28;19913;-30
2022/11/15 07:48:48;;;;;;;;;;;;;;;4.03;76.61;100547.41;5071827;28;19924;-30
2022/11/15 07:51:14;;;;;;;;;;;;;;;4.05;76.18;100543.06;5071831;28;19917;-30
2022/11/15 07:53:39;;;;;;;;;;;;;;;4.08;76.30;100545.72;5071757;28;20076;-30
2022/11/15 07:56:07;;;;;;;;;;;;;;;4.11;75.93;100543.16;5071762;28;20011;-30
2022/11/15 07:58:33;;;;;;;;;;;;;;;4.13;75.87;100536.22;5075991;28;19913;-30
2022/11/15 08:00:58;;;;;;;;;;;;;;;4.17;76.19;100532.81;5075892;28;20327;-30
2022/11/15 08:03:23;;;;;;;;;;;;;;;4.20;75.85;100540.69;5075844;28;19944;-30
2022/11/15 08:05:52;;;;;;;;;;;;;;;4.24;75.67;100533.78;5057688;28;20017;-30
2022/11/15 08:08:17;;;;;;;;;;;;;;;4.28;75.63;100522.53;5075258;28;19917;-30
2022/11/15 08:10:42;;;;;;;;;;;;;;;4.31;75.82;100522.59;5065723;28;19916;-29
2022/11/15 08:13:08;;;;;;;;;;;;;;;4.36;75.33;100525.25;5075536;28;20404;-30
2022/11/15 08:15:34;;;;;;;;;;;;;;;4.40;75.82;100526.19;5075841;28;20367;-30
2022/11/15 08:18:01;;;;;;;;;;;;;;;4.43;75.66;100516.63;5057406;28;19924;-30
2022/11/15 08:20:29;;;;;;;;;;;;;;;4.47;75.95;100518.44;5075596;28;20441;-30
2022/11/15 08:22:55;;;;;;;;;;;;;;;4.52;75.57;100518.50;5073950;28;20289;-30
2022/11/15 08:25:20;;;;;;;;;;;;;;;4.58;75.60;100520.31;5075350;28;19913;-30
2022/11/15 08:27:45;;;;;;;;;;;;;;;4.61;76.05;100515.13;5075220;28;19995;-30
2022/11/15 08:30:11;;;;;;;;;;;;;;;4.65;76.12;100519.53;5075452;28;19912;-30
2022/11/15 08:32:36;;;;;;;;;;;;;;;4.71;75.48;100508.28;5075270;28;19943;-30
2022/11/15 08:35:02;;;;;;;;;;;;;;;4.75;76.10;100508.34;5074999;28;20293;-30
2022/11/15 08:37:28;;;;;;;;;;;;;;;4.81;75.74;100504.94;5072647;28;19939;-29
2022/11/15 08:39:53;;;;;;;;;;;;;;;4.86;75.73;100502.38;5067864;28;20415;-29
2022/11/15 08:42:18;;;;;;;;;;;;;;;4.92;75.53;100506.78;5064211;28;19978;-30
2022/11/15 08:44:43;;;;;;;;;;;;;;;4.97;75.94;100503.38;5040213;28;19913;-29
2022/11/15 08:47:11;;;;;;;;;;;;;;;5.02;76.08;100508.66;5056916;28;19920;-30
2022/11/15 08:49:36;;;;;;;;;;;;;;;5.07;75.54;100498.25;5040456;28;19912;-29
2022/11/15 08:52:01;;;;;;;;;;;;;;;5.11;75.90;100500.91;5065498;28;20384;-30
2022/11/15 08:54:26;;;;;;;;;;;;;;;5.17;75.52;100500.09;5056690;28;19943;-30
2022/11/15 08:56:51;;;;;;;;;;;;;;;5.22;75.38;100489.69;5055506;28;19935;-30
2022/11/15 08:59:17;;;;;;;;;;;;;;;5.26;75.22;100494.97;5065954;28;19917;-30
2022/11/15 09:01:42;;;;;;;;;;;;;;;5.31;75.85;100496.75;5056655;28;20361;-29
2022/11/15 09:04:07;;;;;;;;;;;;;;;5.35;75.57;100488.06;5074810;28;19916;-30
2022/11/15 09:06:33;;;;;;;;;;;;;;;5.39;75.22;100485.50;5070842;28;20427;-30
2022/11/15 09:08:58;;;;;;;;;;;;;;;5.46;75.71;100491.66;5068958;28;19924;-30
2022/11/15 09:11:23;;;;;;;;;;;;;;;5.51;75.64;100489.94;5056617;28;20385;-30
2022/11/15 09:13:49;;;;;;;;;;;;;;;5.57;76.03;100494.34;5074725;28;19923;-30
2022/11/15 09:16:15;;;;;;;;;;;;;;;5.63;75.97;100498.75;5074564;28;20297;-30
2022/11/15 09:18:40;;;;;;;;;;;;;;;5.69;75.63;100483.13;5074270;28;19923;-30
2022/11/15 09:21:05;;;;;;;;;;;;;;;5.75;76.07;100487.53;5064910;28;20437;-30
2022/11/15 09:23:31;;;;;;;;;;;;;;;5.82;76.04;100483.22;5072613;28;19916;-29
2022/11/15 09:26:00;;;;;;;;;;;;;;;5.87;75.96;100481.53;5056393;28;19930;-30
2022/11/15 09:28:25;;;;;;;;;;;;;;;5.94;76.08;100487.69;5056403;28;19955;-30
2022/11/15 09:30:50;;;;;;;;;;;;;;;6.00;76.14;100478.13;5056383;28;19939;-30
2022/11/15 09:33:16;;;;;;;;;;;;;;;6.07;76.00;100480.81;5072748;28;20010;-29
2022/11/15 09:35:41;;;;;;;;;;;;;;;6.13;75.58;100467.75;5065832;28;19916;-29
2022/11/15 09:38:06;;;;;;;;;;;;;;;6.21;76.06;100470.41;5073674;28;19917;-29
2022/11/15 09:40:32;;;;;;;;;;;;;;;6.27;76.16;100468.69;5074213;28;19912;-30
2022/11/15 09:43:10;;;;;;;;;;;;;;;6.34;76.17;100468.75;5056142;28;20003;-29
2022/11/15 09:45:41;;;;;;;;;;;;;;;6.42;76.25;100464.41;5056136;28;20380;-30
2022/11/15 09:48:25;;;;;;;;;;;;;;;6.50;75.92;100467.09;5065184;28;20014;-30
2022/11/15 09:50:51;;;;;;;;;;;;;;;6.56;76.24;100467.09;5057336;28;19970;-29
2022/11/15 09:53:38;;;;;;;;;;;;;;;6.63;76.18;100462.75;5053779;28;19951;-30
2022/11/15 09:56:04;;;;;;;;;;;;;;;6.70;76.27;100463.66;5003676;28;19942;-30
2022/11/15 09:58:49;;;;;;;;;;;;;;;6.77;76.60;100461.03;5035649;28;19913;-30
2022/11/15 10:01:17;;;;;;;;;;;;;;;6.85;76.47;100462.81;5052735;28;19912;-30
2022/11/15 10:03:42;;;;;;;;;;;;;;;6.92;76.54;100460.25;5046139;28;19916;-30
2022/11/15 10:06:14;;;;;;;;;;;;;;;7.00;76.78;100452.38;5055776;28;19916;-30
2022/11/15 10:08:58;;;;;;;;;;;;;;;7.09;76.73;100455.88;5055511;28;19919;-30
2022/11/15 10:11:28;;;;;;;;;;;;;;;7.16;76.95;100447.16;5055168;28;19912;-29
2022/11/15 10:13:54;;;;;;;;;;;;;;;7.25;76.81;100439.31;5073412;28;20314;-30
2022/11/15 10:16:20;;;;;;;;;;;;;;;7.34;77.29;100434.94;5070938;28;19920;-30
2022/11/15 10:19:03;;;;;;;;;;;;;;;7.40;77.04;100420.06;5064043;28;20258;-30
2022/11/15 10:21:34;;;;;;;;;;;;;;;7.50;76.99;100425.31;5073653;28;19923;-30
2022/11/15 10:23:59;;;;;;;;;;;;;;;7.59;76.86;100425.31;5073100;28;19928;-30
2022/11/15 10:26:25;;;;;;;;;;;;;;;7.66;77.22;100421.81;5055658;28;19913;-30
2022/11/15 10:28:50;;;;;;;;;;;;;;;7.74;77.30;100427.03;5073249;28;19966;-30
2022/11/15 10:31:25;;;;;;;;;;;;;;;7.83;77.28;100421.78;5071831;28;19977;-30
2022/11/15 10:33:51;;;;;;;;;;;;;;;7.92;77.66;100426.16;5062777;28;19927;-30
2022/11/15 10:36:17;;;;;;;;;;;;;;;8.00;77.78;100410.34;5046869;28;19917;-30
2022/11/15 10:38:49;;;;;;;;;;;;;;;8.08;78.00;100407.72;5072749;28;19926;-30
2022/11/15 10:41:15;;;;;;;;;;;;;;;8.17;78.19;100412.06;5072927;28;19912;-30
2022/11/15 10:43:40;;;;;;;;;;;;;;;8.25;78.09;100409.41;5054817;28;20012;-30
2022/11/15 10:46:19;;;;;;;;;;;;;;;8.33;78.52;100411.13;5053564;28;19924;-29
2022/11/15 10:48:45;;;;;;;;;;;;;;;8.42;78.34;100404.06;5068694;28;19928;-30
2022/11/15 10:51:19;;;;;;;;;;;;;;;8.49;78.21;100403.16;5072889;28;19913;-30
2022/11/15 10:53:44;;;;;;;;;;;;;;;8.56;78.00;100404.94;5054606;28;20377;-30
2022/11/15 10:56:11;;;;;;;;;;;;;;;8.63;78.04;100391.75;5054772;28;19943;-30
2022/11/15 10:58:38;;;;;;;;;;;;;;;8.70;77.96;100388.19;5072489;28;19956;-30
2022/11/15 11:01:22;;;;;;;;;;;;;;;8.77;77.81;100386.41;5046608;28;19916;-29
2022/11/15 11:04:08;;;;;;;;;;;;;;;8.85;77.56;100385.50;5047113;28;19916;-30
2022/11/15 11:06:59;;;;;;;;;;;;;;;8.95;77.94;100360.00;5053791;28;19958;-30
2022/11/15 11:09:25;;;;;;;;;;;;;;;9.02;77.76;100360.81;5049334;28;19928;-29
2022/11/15 11:11:51;;;;;;;;;;;;;;;9.08;77.72;100371.28;5052415;28;19967;-30
2022/11/15 11:14:24;;;;;;;;;;;;;;;9.17;77.56;100361.59;5034066;28;20006;-30
2022/11/15 11:16:52;;;;;;;;;;;;;;;9.23;77.58;100369.41;5054567;28;20337;-30
2022/11/15 11:19:29;;;;;;;;;;;;;;;9.29;77.64;100364.09;5072755;28;19919;-30
2022/11/15 11:22:06;;;;;;;;;;;;;;;9.35;77.88;100358.78;5053751;28;19916;-29
2022/11/15 11:24:34;;;;;;;;;;;;;;;9.42;77.92;100362.22;5060704;28;19923;-30
2022/11/15 11:27:08;;;;;;;;;;;;;;;9.49;77.53;100355.13;5070730;28;20349;-30
2022/11/15 11:29:33;;;;;;;;;;;;;;;9.54;77.83;100353.31;5072127;28;20011;-30
2022/11/15 11:32:18;;;;;;;;;;;;;;;9.60;77.58;100353.28;5053954;28;19919;-30
2022/11/15 11:35:01;;;;;;;;;;;;;;;9.67;78.01;100351.44;5071478;28;19939;-29
2022/11/15 11:37:30;;;;;;;;;;;;;;;9.72;78.52;100346.13;5071846;28;20307;-30
2022/11/15 11:40:07;;;;;;;;;;;;;;;9.78;78.18;100346.06;5054072;28;20262;-30
2022/11/15 11:42:36;;;;;;;;;;;;;;;9.84;78.43;100348.63;5062567;28;19916;-29
2022/11/15 11:45:01;;;;;;;;;;;;;;;9.90;78.39;100339.78;5053670;28;19959;-30
2022/11/15 11:47:36;;;;;;;;;;;;;;;9.95;78.32;100347.63;5071950;28;19972;-30
2022/11/15 11:50:10;;;;;;;;;;;;;;;10.01;78.34;100342.31;5071329;28;19942;-30
2022/11/15 11:52:38;;;;;;;;;;;;;;;10.07;78.11;100338.72;5053895;28;19966;-30
2022/11/15 11:55:18;;;;;;;;;;;;;;;10.11;77.88;100330.75;5036775;28;19917;-30
2022/11/15 11:57:49;;;;;;;;;;;;;;;10.21;78.18;100328.00;5063037;28;19923;-30
2022/11/15 12:00:14;;;;;;;;;;;;;;;10.27;77.80;100320.00;5071816;28;19919;-30
2022/11/15 12:02:44;;;;;;;;;;;;;;;10.34;78.04;100319.03;5068107;28;19916;-30
2022/11/15 12:05:20;;;;;;;;;;;;;;;10.39;78.01;100322.47;5071436;28;19916;-30
2022/11/15 12:07:45;;;;;;;;;;;;;;;10.47;78.48;100325.03;5053298;28;20377;-30
2022/11/15 12:10:23;;;;;;;;;;;;;;;10.53;78.11;100316.16;5063290;28;19924;-30
2022/11/15 12:13:02;;;;;;;;;;;;;;;10.60;78.01;100315.19;5064489;28;19912;-30
2022/11/15 12:15:29;;;;;;;;;;;;;;;10.65;78.09;100302.81;5053723;28;20366;-30
2022/11/15 12:17:55;;;;;;;;;;;;;;;10.73;78.15;100304.44;5071130;28;19940;-30
2022/11/15 12:20:24;;;;;;;;;;;;;;;10.78;78.21;100292.06;5071592;28;20377;-30
2022/11/15 12:22:53;;;;;;;;;;;;;;;10.86;78.17;100302.47;5052370;28;21088;-30
2022/11/15 12:25:20;;;;;;;;;;;;;;;10.92;77.91;100305.03;5071430;28;19916;-30
2022/11/15 12:28:04;;;;;;;;;;;;;;;11.00;77.71;100302.25;5071773;28;19917;-30
2022/11/15 12:30:41;;;;;;;;;;;;;;;11.06;77.75;100294.22;5071278;28;19918;-30
2022/11/15 12:33:09;;;;;;;;;;;;;;;11.14;77.13;100294.09;5071236;28;20361;-30
2022/11/15 12:35:34;;;;;;;;;;;;;;;11.22;77.46;100291.31;5052876;28;19921;-30
2022/11/15 12:37:59;;;;;;;;;;;;;;;11.28;77.59;100278.88;5070236;28;20392;-30
2022/11/15 12:40:29;;;;;;;;;;;;;;;11.34;77.58;100283.16;5069245;28;20345;-30
2022/11/15 12:43:10;;;;;;;;;;;;;;;11.40;78.09;100280.41;5049183;28;19912;-30
2022/11/15 12:45:37;;;;;;;;;;;;;;;11.47;77.98;100283.81;5055360;28;19964;-30
2022/11/15 12:48:17;;;;;;;;;;;;;;;11.54;77.58;100274.00;5055233;28;19913;-30
2022/11/15 12:50:54;;;;;;;;;;;;;;;11.59;77.77;100274.78;5053868;28;19966;-30
2022/11/15 12:53:20;;;;;;;;;;;;;;;11.68;77.34;100273.75;5065645;28;20442;-30
2022/11/15 12:55:45;;;;;;;;;;;;;;;11.75;77.26;100274.47;5074867;28;19924;-30
2022/11/15 12:58:24;;;;;;;;;;;;;;;11.85;77.49;100264.59;5056638;28;20285;-30
2022/11/15 13:00:49;;;;;;;;;;;;;;;11.93;77.67;100266.16;5056930;28;19955;-30
2022/11/15 13:03:23;;;;;;;;;;;;;;;11.99;77.56;100262.53;5074507;28;20047;-30